sensor_id;sensor_type;location;lat;lon;timestamp;P1;durP1;ratioP1;P2;durP2;ratioP2
44145;SDS011;29809;52.432;4.780;2022-08-01T00:02:26;2.38;;;2.13;;
44145;SDS011;29809;52.432;4.780;2022-08-01T00:04:53;2.47;;;1.80;;
44145;SDS011;29809;52.432;4.780;2022-08-01T00:07:18;1.75;;;1.65;;
44145;SDS011;29809;52.432;4.780;2022-08-01T00:09:43;1.75;;;1.65;;
44145;SDS011;29809;52.432;4.780;2022-08-01T00:12:10;1.95;;;1.77;;
44145;SDS011;29809;52.432;4.780;2022-08-01T00:14:35;1.95;;;1.67;;
44145;SDS011;29809;52.432;4.780;2022-08-01T00:17:00;2.45;;;1.83;;
44145;SDS011;29809;52.432;4.780;2022-08-01T00:19:26;2.70;;;1.58;;
44145;SDS011;29809;52.432;4.780;2022-08-01T00:21:51;1.42;;;1.33;;
44145;SDS011;29809;52.432;4.780;2022-08-01T00:24:16;3.13;;;1.58;;
44145;SDS011;29809;52.432;4.780;2022-08-01T00:26:41;1.55;;;1.45;;
44145;SDS011;29809;52.432;4.780;2022-08-01T00:29:06;1.67;;;1.58;;
44145;SDS011;29809;52.432;4.780;2022-08-01T00:31:32;3.17;;;1.45;;
44145;SDS011;29809;52.432;4.780;2022-08-01T00:33:57;1.38;;;1.27;;
44145;SDS011;29809;52.432;4.780;2022-08-01T00:36:22;1.63;;;1.52;;
44145;SDS011;29809;52.432;4.780;2022-08-01T00:38:48;1.52;;;1.23;;
44145;SDS011;29809;52.432;4.780;2022-08-01T00:41:13;1.50;;;1.40;;
44145;SDS011;29809;52.432;4.780;2022-08-01T00:43:38;1.60;;;1.17;;
44145;SDS011;29809;52.432;4.780;2022-08-01T00:46:03;1.27;;;1.13;;
44145;SDS011;29809;52.432;4.780;2022-08-01T00:48:29;1.42;;;1.33;;
44145;SDS011;29809;52.432;4.780;2022-08-01T00:50:54;2.35;;;1.20;;
44145;SDS011;29809;52.432;4.780;2022-08-01T00:53:19;1.30;;;1.20;;
44145;SDS011;29809;52.432;4.780;2022-08-01T00:55:45;1.65;;;1.00;;
44145;SDS011;29809;52.432;4.780;2022-08-01T00:58:11;1.17;;;1.13;;
44145;SDS011;29809;52.432;4.780;2022-08-01T01:00:36;3.40;;;1.60;;
44145;SDS011;29809;52.432;4.780;2022-08-01T01:03:02;1.85;;;1.20;;
44145;SDS011;29809;52.432;4.780;2022-08-01T01:05:27;1.25;;;1.10;;
44145;SDS011;29809;52.432;4.780;2022-08-01T01:08:02;1.13;;;0.98;;
44145;SDS011;29809;52.432;4.780;2022-08-01T01:12:55;1.23;;;1.00;;
44145;SDS011;29809;52.432;4.780;2022-08-01T01:18:13;1.30;;;1.00;;
44145;SDS011;29809;52.432;4.780;2022-08-01T01:20:43;1.42;;;1.00;;
44145;SDS011;29809;52.432;4.780;2022-08-01T01:28:08;1.30;;;1.20;;
44145;SDS011;29809;52.432;4.780;2022-08-01T01:30:34;2.13;;;1.27;;
44145;SDS011;29809;52.432;4.780;2022-08-01T01:33:02;2.38;;;1.52;;
44145;SDS011;29809;52.432;4.780;2022-08-01T01:35:29;1.45;;;1.33;;
44145;SDS011;29809;52.432;4.780;2022-08-01T01:37:58;1.67;;;1.48;;
44145;SDS011;29809;52.432;4.780;2022-08-01T01:40:24;2.97;;;1.40;;
44145;SDS011;29809;52.432;4.780;2022-08-01T01:42:50;1.27;;;1.10;;
44145;SDS011;29809;52.432;4.780;2022-08-01T01:45:16;2.15;;;1.40;;
44145;SDS011;29809;52.432;4.780;2022-08-01T01:47:43;1.27;;;1.17;;
44145;SDS011;29809;52.432;4.780;2022-08-01T01:50:09;1.92;;;1.25;;
44145;SDS011;29809;52.432;4.780;2022-08-01T01:52:36;2.05;;;1.40;;
44145;SDS011;29809;52.432;4.780;2022-08-01T01:55:04;1.85;;;1.40;;
44145;SDS011;29809;52.432;4.780;2022-08-01T01:57:30;2.78;;;1.30;;
44145;SDS011;29809;52.432;4.780;2022-08-01T01:59:56;1.80;;;1.25;;
44145;SDS011;29809;52.432;4.780;2022-08-01T02:02:22;4.70;;;1.48;;
44145;SDS011;29809;52.432;4.780;2022-08-01T02:04:48;1.58;;;1.48;;
44145;SDS011;29809;52.432;4.780;2022-08-01T02:07:17;2.00;;;1.40;;
44145;SDS011;29809;52.432;4.780;2022-08-01T02:09:43;1.48;;;1.30;;
44145;SDS011;29809;52.432;4.780;2022-08-01T02:12:12;2.58;;;1.25;;
44145;SDS011;29809;52.432;4.780;2022-08-01T02:14:37;2.05;;;1.23;;
44145;SDS011;29809;52.432;4.780;2022-08-01T02:17:05;1.58;;;1.20;;
44145;SDS011;29809;52.432;4.780;2022-08-01T02:19:30;1.50;;;1.38;;
44145;SDS011;29809;52.432;4.780;2022-08-01T02:21:58;1.80;;;1.20;;
44145;SDS011;29809;52.432;4.780;2022-08-01T02:24:27;2.33;;;1.50;;
44145;SDS011;29809;52.432;4.780;2022-08-01T02:26:53;2.65;;;1.50;;
44145;SDS011;29809;52.432;4.780;2022-08-01T02:29:45;1.63;;;1.05;;
44145;SDS011;29809;52.432;4.780;2022-08-01T02:32:10;1.02;;;0.95;;
44145;SDS011;29809;52.432;4.780;2022-08-01T02:34:36;0.90;;;0.88;;
44145;SDS011;29809;52.432;4.780;2022-08-01T02:37:02;1.20;;;1.20;;
44145;SDS011;29809;52.432;4.780;2022-08-01T02:39:28;1.63;;;1.20;;
44145;SDS011;29809;52.432;4.780;2022-08-01T02:41:55;1.05;;;0.82;;
44145;SDS011;29809;52.432;4.780;2022-08-01T02:44:27;1.42;;;1.17;;
44145;SDS011;29809;52.432;4.780;2022-08-01T02:46:57;1.50;;;1.00;;
44145;SDS011;29809;52.432;4.780;2022-08-01T02:49:27;2.15;;;1.00;;
44145;SDS011;29809;52.432;4.780;2022-08-01T02:51:53;2.80;;;1.20;;
44145;SDS011;29809;52.432;4.780;2022-08-01T02:54:19;0.95;;;0.95;;
44145;SDS011;29809;52.432;4.780;2022-08-01T02:56:46;1.05;;;1.00;;
44145;SDS011;29809;52.432;4.780;2022-08-01T02:59:12;0.90;;;0.90;;
44145;SDS011;29809;52.432;4.780;2022-08-01T03:01:39;0.85;;;0.85;;
44145;SDS011;29809;52.432;4.780;2022-08-01T03:04:05;2.45;;;1.00;;
44145;SDS011;29809;52.432;4.780;2022-08-01T03:06:32;2.58;;;0.82;;
44145;SDS011;29809;52.432;4.780;2022-08-01T03:08:58;1.02;;;0.60;;
44145;SDS011;29809;52.432;4.780;2022-08-01T03:11:25;0.80;;;0.80;;
44145;SDS011;29809;52.432;4.780;2022-08-01T03:13:51;2.28;;;0.82;;
44145;SDS011;29809;52.432;4.780;2022-08-01T03:16:17;1.02;;;0.88;;
44145;SDS011;29809;52.432;4.780;2022-08-01T03:18:43;0.68;;;0.68;;
44145;SDS011;29809;52.432;4.780;2022-08-01T03:21:09;2.47;;;0.63;;
44145;SDS011;29809;52.432;4.780;2022-08-01T03:23:36;0.80;;;0.80;;
44145;SDS011;29809;52.432;4.780;2022-08-01T03:26:03;2.42;;;0.82;;
44145;SDS011;29809;52.432;4.780;2022-08-01T03:28:28;1.30;;;0.73;;
44145;SDS011;29809;52.432;4.780;2022-08-01T03:30:54;0.93;;;0.60;;
44145;SDS011;29809;52.432;4.780;2022-08-01T03:33:20;2.30;;;0.70;;
44145;SDS011;29809;52.432;4.780;2022-08-01T03:35:46;0.55;;;0.55;;
44145;SDS011;29809;52.432;4.780;2022-08-01T03:38:12;1.02;;;0.93;;
44145;SDS011;29809;52.432;4.780;2022-08-01T03:40:41;0.80;;;0.80;;
44145;SDS011;29809;52.432;4.780;2022-08-01T03:43:19;0.75;;;0.60;;
44145;SDS011;29809;52.432;4.780;2022-08-01T03:45:48;3.10;;;0.70;;
44145;SDS011;29809;52.432;4.780;2022-08-01T03:48:16;0.57;;;0.57;;
44145;SDS011;29809;52.432;4.780;2022-08-01T03:50:42;0.73;;;0.73;;
44145;SDS011;29809;52.432;4.780;2022-08-01T03:53:08;1.27;;;0.73;;
44145;SDS011;29809;52.432;4.780;2022-08-01T03:55:34;0.57;;;0.57;;
44145;SDS011;29809;52.432;4.780;2022-08-01T03:58:02;2.53;;;0.90;;
44145;SDS011;29809;52.432;4.780;2022-08-01T04:00:28;1.13;;;1.00;;
44145;SDS011;29809;52.432;4.780;2022-08-01T04:02:53;0.70;;;0.70;;
44145;SDS011;29809;52.432;4.780;2022-08-01T04:05:19;1.52;;;0.80;;
44145;SDS011;29809;52.432;4.780;2022-08-01T04:07:46;1.27;;;0.60;;
44145;SDS011;29809;52.432;4.780;2022-08-01T04:10:11;1.30;;;0.77;;
44145;SDS011;29809;52.432;4.780;2022-08-01T04:12:37;1.20;;;0.65;;
44145;SDS011;29809;52.432;4.780;2022-08-01T04:15:02;1.20;;;0.70;;
44145;SDS011;29809;52.432;4.780;2022-08-01T04:17:28;1.05;;;0.50;;
44145;SDS011;29809;52.432;4.780;2022-08-01T04:19:53;2.17;;;0.70;;
44145;SDS011;29809;52.432;4.780;2022-08-01T04:22:18;2.03;;;0.60;;
44145;SDS011;29809;52.432;4.780;2022-08-01T04:24:44;3.13;;;0.85;;
44145;SDS011;29809;52.432;4.780;2022-08-01T04:27:14;1.38;;;0.70;;
44145;SDS011;29809;52.432;4.780;2022-08-01T04:29:40;1.20;;;0.70;;
44145;SDS011;29809;52.432;4.780;2022-08-01T04:32:11;0.82;;;0.73;;
44145;SDS011;29809;52.432;4.780;2022-08-01T04:34:37;1.67;;;0.88;;
44145;SDS011;29809;52.432;4.780;2022-08-01T04:37:05;2.03;;;0.80;;
44145;SDS011;29809;52.432;4.780;2022-08-01T04:39:32;2.13;;;0.80;;
44145;SDS011;29809;52.432;4.780;2022-08-01T04:41:59;4.00;;;0.77;;
44145;SDS011;29809;52.432;4.780;2022-08-01T04:44:25;3.97;;;0.95;;
44145;SDS011;29809;52.432;4.780;2022-08-01T04:46:52;4.10;;;1.00;;
44145;SDS011;29809;52.432;4.780;2022-08-01T04:49:19;5.32;;;1.10;;
44145;SDS011;29809;52.432;4.780;2022-08-01T04:51:55;7.45;;;1.00;;
44145;SDS011;29809;52.432;4.780;2022-08-01T04:54:28;7.70;;;1.05;;
44145;SDS011;29809;52.432;4.780;2022-08-01T04:56:54;5.35;;;1.42;;
44145;SDS011;29809;52.432;4.780;2022-08-01T04:59:25;4.20;;;1.17;;
44145;SDS011;29809;52.432;4.780;2022-08-01T05:02:06;1.75;;;1.13;;
44145;SDS011;29809;52.432;4.780;2022-08-01T05:04:32;3.33;;;0.88;;
44145;SDS011;29809;52.432;4.780;2022-08-01T05:06:57;6.55;;;1.50;;
44145;SDS011;29809;52.432;4.780;2022-08-01T05:09:22;39.72;;;14.20;;
44145;SDS011;29809;52.432;4.780;2022-08-01T05:11:48;236.82;;;65.35;;
44145;SDS011;29809;52.432;4.780;2022-08-01T05:14:13;194.10;;;62.38;;
44145;SDS011;29809;52.432;4.780;2022-08-01T05:16:38;146.35;;;49.80;;
44145;SDS011;29809;52.432;4.780;2022-08-01T05:19:03;169.80;;;56.53;;
44145;SDS011;29809;52.432;4.780;2022-08-01T05:21:29;85.80;;;31.10;;
44145;SDS011;29809;52.432;4.780;2022-08-01T05:23:54;80.82;;;28.25;;
44145;SDS011;29809;52.432;4.780;2022-08-01T05:26:19;71.18;;;25.20;;
44145;SDS011;29809;52.432;4.780;2022-08-01T05:28:44;61.92;;;24.48;;
44145;SDS011;29809;52.432;4.780;2022-08-01T05:31:10;52.33;;;21.58;;
44145;SDS011;29809;52.432;4.780;2022-08-01T05:33:35;53.15;;;21.40;;
44145;SDS011;29809;52.432;4.780;2022-08-01T05:36:00;50.50;;;19.25;;
44145;SDS011;29809;52.432;4.780;2022-08-01T05:38:25;38.05;;;16.67;;
44145;SDS011;29809;52.432;4.780;2022-08-01T05:40:51;34.85;;;16.15;;
44145;SDS011;29809;52.432;4.780;2022-08-01T05:43:16;39.75;;;16.58;;
44145;SDS011;29809;52.432;4.780;2022-08-01T05:45:41;34.13;;;14.70;;
44145;SDS011;29809;52.432;4.780;2022-08-01T05:48:06;37.00;;;15.18;;
44145;SDS011;29809;52.432;4.780;2022-08-01T05:50:32;27.73;;;12.20;;
44145;SDS011;29809;52.432;4.780;2022-08-01T05:52:57;31.52;;;12.30;;
44145;SDS011;29809;52.432;4.780;2022-08-01T05:55:23;21.63;;;9.73;;
44145;SDS011;29809;52.432;4.780;2022-08-01T05:57:48;23.52;;;11.27;;
44145;SDS011;29809;52.432;4.780;2022-08-01T06:00:13;26.67;;;10.82;;
44145;SDS011;29809;52.432;4.780;2022-08-01T06:02:40;18.42;;;9.23;;
44145;SDS011;29809;52.432;4.780;2022-08-01T06:05:05;17.65;;;8.93;;
44145;SDS011;29809;52.432;4.780;2022-08-01T06:07:31;18.45;;;8.93;;
44145;SDS011;29809;52.432;4.780;2022-08-01T06:09:57;18.38;;;7.97;;
44145;SDS011;29809;52.432;4.780;2022-08-01T06:12:22;17.15;;;7.10;;
44145;SDS011;29809;52.432;4.780;2022-08-01T06:14:47;14.82;;;6.85;;
44145;SDS011;29809;52.432;4.780;2022-08-01T06:17:12;13.30;;;6.50;;
44145;SDS011;29809;52.432;4.780;2022-08-01T06:19:38;16.58;;;7.38;;
44145;SDS011;29809;52.432;4.780;2022-08-01T06:22:03;17.05;;;6.80;;
44145;SDS011;29809;52.432;4.780;2022-08-01T06:24:28;16.08;;;5.68;;
44145;SDS011;29809;52.432;4.780;2022-08-01T06:26:53;12.73;;;4.90;;
44145;SDS011;29809;52.432;4.780;2022-08-01T06:29:19;11.10;;;4.05;;
44145;SDS011;29809;52.432;4.780;2022-08-01T06:31:44;13.88;;;4.32;;
44145;SDS011;29809;52.432;4.780;2022-08-01T06:34:09;12.43;;;4.80;;
44145;SDS011;29809;52.432;4.780;2022-08-01T06:36:34;8.25;;;3.75;;
44145;SDS011;29809;52.432;4.780;2022-08-01T06:38:59;9.70;;;4.28;;
44145;SDS011;29809;52.432;4.780;2022-08-01T06:41:25;11.27;;;3.70;;
44145;SDS011;29809;52.432;4.780;2022-08-01T06:43:50;8.52;;;3.10;;
44145;SDS011;29809;52.432;4.780;2022-08-01T06:46:15;8.18;;;3.10;;
44145;SDS011;29809;52.432;4.780;2022-08-01T06:48:40;9.10;;;3.00;;
44145;SDS011;29809;52.432;4.780;2022-08-01T06:51:07;8.57;;;3.55;;
44145;SDS011;29809;52.432;4.780;2022-08-01T06:53:33;6.28;;;2.60;;
44145;SDS011;29809;52.432;4.780;2022-08-01T06:55:58;8.55;;;3.35;;
44145;SDS011;29809;52.432;4.780;2022-08-01T06:58:23;7.28;;;2.78;;
44145;SDS011;29809;52.432;4.780;2022-08-01T07:00:49;7.68;;;2.97;;
44145;SDS011;29809;52.432;4.780;2022-08-01T07:03:14;13.45;;;3.40;;
44145;SDS011;29809;52.432;4.780;2022-08-01T07:05:39;9.43;;;3.13;;
44145;SDS011;29809;52.432;4.780;2022-08-01T07:08:04;7.95;;;3.03;;
44145;SDS011;29809;52.432;4.780;2022-08-01T07:10:30;9.18;;;3.15;;
44145;SDS011;29809;52.432;4.780;2022-08-01T07:12:55;9.38;;;4.00;;
44145;SDS011;29809;52.432;4.780;2022-08-01T07:15:20;10.07;;;3.33;;
44145;SDS011;29809;52.432;4.780;2022-08-01T07:17:51;7.13;;;2.80;;
44145;SDS011;29809;52.432;4.780;2022-08-01T07:20:16;10.43;;;3.05;;
44145;SDS011;29809;52.432;4.780;2022-08-01T07:22:41;7.53;;;3.03;;
44145;SDS011;29809;52.432;4.780;2022-08-01T07:25:07;10.02;;;3.22;;
44145;SDS011;29809;52.432;4.780;2022-08-01T07:27:32;8.38;;;2.90;;
44145;SDS011;29809;52.432;4.780;2022-08-01T07:29:58;7.07;;;2.28;;
44145;SDS011;29809;52.432;4.780;2022-08-01T07:32:23;7.43;;;2.97;;
44145;SDS011;29809;52.432;4.780;2022-08-01T07:34:48;8.55;;;2.78;;
44145;SDS011;29809;52.432;4.780;2022-08-01T07:37:14;10.18;;;2.92;;
44145;SDS011;29809;52.432;4.780;2022-08-01T07:39:39;6.95;;;2.58;;
44145;SDS011;29809;52.432;4.780;2022-08-01T07:42:04;8.88;;;2.60;;
44145;SDS011;29809;52.432;4.780;2022-08-01T07:44:30;8.52;;;2.35;;
44145;SDS011;29809;52.432;4.780;2022-08-01T07:46:55;6.22;;;2.30;;
44145;SDS011;29809;52.432;4.780;2022-08-01T07:49:20;6.72;;;2.25;;
44145;SDS011;29809;52.432;4.780;2022-08-01T07:51:46;6.70;;;2.45;;
44145;SDS011;29809;52.432;4.780;2022-08-01T07:54:12;7.75;;;2.10;;
44145;SDS011;29809;52.432;4.780;2022-08-01T07:56:37;10.43;;;2.88;;
44145;SDS011;29809;52.432;4.780;2022-08-01T07:59:02;6.88;;;2.35;;
44145;SDS011;29809;52.432;4.780;2022-08-01T08:01:27;8.35;;;2.35;;
44145;SDS011;29809;52.432;4.780;2022-08-01T08:03:53;7.15;;;2.35;;
44145;SDS011;29809;52.432;4.780;2022-08-01T08:06:18;8.27;;;2.47;;
44145;SDS011;29809;52.432;4.780;2022-08-01T08:08:43;8.32;;;2.60;;
44145;SDS011;29809;52.432;4.780;2022-08-01T08:11:09;7.72;;;2.25;;
44145;SDS011;29809;52.432;4.780;2022-08-01T08:13:34;9.43;;;2.55;;
44145;SDS011;29809;52.432;4.780;2022-08-01T08:15:59;4.72;;;2.08;;
44145;SDS011;29809;52.432;4.780;2022-08-01T08:18:25;8.55;;;2.75;;
44145;SDS011;29809;52.432;4.780;2022-08-01T08:20:50;8.75;;;2.10;;
44145;SDS011;29809;52.432;4.780;2022-08-01T08:23:15;8.20;;;2.55;;
44145;SDS011;29809;52.432;4.780;2022-08-01T08:25:59;6.57;;;2.25;;
44145;SDS011;29809;52.432;4.780;2022-08-01T08:28:24;8.48;;;2.10;;
44145;SDS011;29809;52.432;4.780;2022-08-01T08:30:49;9.23;;;2.10;;
44145;SDS011;29809;52.432;4.780;2022-08-01T08:33:15;5.35;;;1.80;;
44145;SDS011;29809;52.432;4.780;2022-08-01T08:35:40;6.00;;;1.98;;
44145;SDS011;29809;52.432;4.780;2022-08-01T08:38:06;5.85;;;2.00;;
44145;SDS011;29809;52.432;4.780;2022-08-01T08:40:31;5.13;;;2.03;;
44145;SDS011;29809;52.432;4.780;2022-08-01T08:42:59;5.72;;;2.05;;
44145;SDS011;29809;52.432;4.780;2022-08-01T08:45:25;8.15;;;2.38;;
44145;SDS011;29809;52.432;4.780;2022-08-01T08:47:51;5.45;;;2.17;;
44145;SDS011;29809;52.432;4.780;2022-08-01T08:50:17;6.07;;;2.03;;
44145;SDS011;29809;52.432;4.780;2022-08-01T08:52:42;5.00;;;1.77;;
44145;SDS011;29809;52.432;4.780;2022-08-01T08:55:08;5.07;;;1.85;;
44145;SDS011;29809;52.432;4.780;2022-08-01T08:57:33;3.85;;;1.60;;
44145;SDS011;29809;52.432;4.780;2022-08-01T08:59:59;5.97;;;2.10;;
44145;SDS011;29809;52.432;4.780;2022-08-01T09:02:24;4.07;;;1.90;;
44145;SDS011;29809;52.432;4.780;2022-08-01T09:04:50;7.53;;;1.52;;
44145;SDS011;29809;52.432;4.780;2022-08-01T09:07:15;6.22;;;1.85;;
44145;SDS011;29809;52.432;4.780;2022-08-01T09:09:41;7.00;;;2.10;;
44145;SDS011;29809;52.432;4.780;2022-08-01T09:12:06;6.13;;;2.15;;
44145;SDS011;29809;52.432;4.780;2022-08-01T09:14:31;5.00;;;1.75;;
44145;SDS011;29809;52.432;4.780;2022-08-01T09:17:01;5.03;;;1.83;;
44145;SDS011;29809;52.432;4.780;2022-08-01T09:19:33;5.03;;;1.83;;
44145;SDS011;29809;52.432;4.780;2022-08-01T09:22:00;5.82;;;1.60;;
44145;SDS011;29809;52.432;4.780;2022-08-01T09:24:26;6.75;;;1.90;;
44145;SDS011;29809;52.432;4.780;2022-08-01T09:26:51;7.18;;;2.03;;
44145;SDS011;29809;52.432;4.780;2022-08-01T09:29:19;5.28;;;1.80;;
44145;SDS011;29809;52.432;4.780;2022-08-01T09:31:45;5.63;;;2.22;;
44145;SDS011;29809;52.432;4.780;2022-08-01T09:34:11;4.32;;;1.52;;
44145;SDS011;29809;52.432;4.780;2022-08-01T09:36:44;2.55;;;1.33;;
44145;SDS011;29809;52.432;4.780;2022-08-01T09:39:13;6.10;;;1.67;;
44145;SDS011;29809;52.432;4.780;2022-08-01T09:41:39;7.80;;;2.10;;
44145;SDS011;29809;52.432;4.780;2022-08-01T09:44:04;8.45;;;1.92;;
44145;SDS011;29809;52.432;4.780;2022-08-01T09:46:29;4.30;;;1.42;;
44145;SDS011;29809;52.432;4.780;2022-08-01T09:49:02;6.25;;;1.85;;
44145;SDS011;29809;52.432;4.780;2022-08-01T09:51:31;5.15;;;1.60;;
44145;SDS011;29809;52.432;4.780;2022-08-01T09:53:57;5.93;;;2.03;;
44145;SDS011;29809;52.432;4.780;2022-08-01T09:56:22;5.65;;;2.13;;
44145;SDS011;29809;52.432;4.780;2022-08-01T09:58:55;4.07;;;1.75;;
44145;SDS011;29809;52.432;4.780;2022-08-01T10:01:21;3.80;;;1.40;;
44145;SDS011;29809;52.432;4.780;2022-08-01T10:03:47;5.13;;;1.80;;
44145;SDS011;29809;52.432;4.780;2022-08-01T10:06:18;4.40;;;1.45;;
44145;SDS011;29809;52.432;4.780;2022-08-01T10:08:47;3.60;;;1.67;;
44145;SDS011;29809;52.432;4.780;2022-08-01T10:11:13;6.68;;;1.80;;
44145;SDS011;29809;52.432;4.780;2022-08-01T10:13:38;4.70;;;1.48;;
44145;SDS011;29809;52.432;4.780;2022-08-01T10:16:04;4.95;;;1.50;;
44145;SDS011;29809;52.432;4.780;2022-08-01T10:18:30;4.78;;;1.67;;
44145;SDS011;29809;52.432;4.780;2022-08-01T10:20:56;5.47;;;1.70;;
44145;SDS011;29809;52.432;4.780;2022-08-01T10:23:22;4.75;;;1.50;;
44145;SDS011;29809;52.432;4.780;2022-08-01T10:25:48;5.38;;;1.95;;
44145;SDS011;29809;52.432;4.780;2022-08-01T10:28:14;3.05;;;1.30;;
44145;SDS011;29809;52.432;4.780;2022-08-01T10:30:42;5.03;;;1.42;;
44145;SDS011;29809;52.432;4.780;2022-08-01T10:33:08;4.45;;;1.58;;
44145;SDS011;29809;52.432;4.780;2022-08-01T10:35:34;4.75;;;1.48;;
44145;SDS011;29809;52.432;4.780;2022-08-01T10:37:59;6.10;;;1.60;;
44145;SDS011;29809;52.432;4.780;2022-08-01T10:40:24;5.18;;;1.40;;
44145;SDS011;29809;52.432;4.780;2022-08-01T10:42:50;4.40;;;1.67;;
44145;SDS011;29809;52.432;4.780;2022-08-01T10:45:16;3.40;;;1.25;;
44145;SDS011;29809;52.432;4.780;2022-08-01T10:47:44;3.60;;;1.55;;
44145;SDS011;29809;52.432;4.780;2022-08-01T10:50:52;3.28;;;1.40;;
44145;SDS011;29809;52.432;4.780;2022-08-01T10:53:12;3.35;;;1.20;;
44145;SDS011;29809;52.432;4.780;2022-08-01T10:55:59;3.20;;;1.17;;
44145;SDS011;29809;52.432;4.780;2022-08-01T10:58:34;4.55;;;1.30;;
44145;SDS011;29809;52.432;4.780;2022-08-01T11:03:40;5.03;;;1.60;;
44145;SDS011;29809;52.432;4.780;2022-08-01T11:06:05;5.75;;;1.60;;
44145;SDS011;29809;52.432;4.780;2022-08-01T11:08:31;4.80;;;1.75;;
44145;SDS011;29809;52.432;4.780;2022-08-01T11:11:02;5.03;;;1.70;;
44145;SDS011;29809;52.432;4.780;2022-08-01T11:14:00;5.28;;;1.50;;
44145;SDS011;29809;52.432;4.780;2022-08-01T11:16:26;4.25;;;1.38;;
44145;SDS011;29809;52.432;4.780;2022-08-01T11:18:52;3.50;;;1.63;;
44145;SDS011;29809;52.432;4.780;2022-08-01T11:21:18;3.72;;;1.48;;
44145;SDS011;29809;52.432;4.780;2022-08-01T11:23:47;4.05;;;1.30;;
44145;SDS011;29809;52.432;4.780;2022-08-01T11:26:14;6.65;;;1.60;;
44145;SDS011;29809;52.432;4.780;2022-08-01T11:28:39;5.13;;;1.30;;
44145;SDS011;29809;52.432;4.780;2022-08-01T11:38:36;4.25;;;1.40;;
44145;SDS011;29809;52.432;4.780;2022-08-01T11:51:49;2.83;;;1.13;;
44145;SDS011;29809;52.432;4.780;2022-08-01T11:54:24;3.65;;;1.10;;
44145;SDS011;29809;52.432;4.780;2022-08-01T11:56:54;3.17;;;1.55;;
44145;SDS011;29809;52.432;4.780;2022-08-01T11:59:19;2.78;;;1.08;;
44145;SDS011;29809;52.432;4.780;2022-08-01T12:01:45;3.25;;;1.23;;
44145;SDS011;29809;52.432;4.780;2022-08-01T12:04:11;6.70;;;1.15;;
44145;SDS011;29809;52.432;4.780;2022-08-01T12:06:36;3.50;;;1.30;;
44145;SDS011;29809;52.432;4.780;2022-08-01T12:09:20;2.92;;;1.30;;
44145;SDS011;29809;52.432;4.780;2022-08-01T12:11:46;5.30;;;1.42;;
44145;SDS011;29809;52.432;4.780;2022-08-01T12:14:18;4.40;;;1.50;;
44145;SDS011;29809;52.432;4.780;2022-08-01T12:16:53;3.33;;;1.00;;
44145;SDS011;29809;52.432;4.780;2022-08-01T12:19:22;3.13;;;1.55;;
44145;SDS011;29809;52.432;4.780;2022-08-01T12:24:32;3.35;;;1.30;;
44145;SDS011;29809;52.432;4.780;2022-08-01T12:26:57;2.63;;;1.30;;
44145;SDS011;29809;52.432;4.780;2022-08-01T12:29:39;1.95;;;1.20;;
44145;SDS011;29809;52.432;4.780;2022-08-01T12:32:13;8.55;;;1.58;;
44145;SDS011;29809;52.432;4.780;2022-08-01T12:34:45;4.63;;;1.35;;
44145;SDS011;29809;52.432;4.780;2022-08-01T12:37:10;3.47;;;1.65;;
44145;SDS011;29809;52.432;4.780;2022-08-01T12:39:35;3.90;;;1.38;;
44145;SDS011;29809;52.432;4.780;2022-08-01T12:42:01;4.05;;;1.42;;
44145;SDS011;29809;52.432;4.780;2022-08-01T12:44:30;3.92;;;1.23;;
44145;SDS011;29809;52.432;4.780;2022-08-01T12:46:55;3.85;;;1.65;;
44145;SDS011;29809;52.432;4.780;2022-08-01T12:49:21;5.03;;;1.40;;
44145;SDS011;29809;52.432;4.780;2022-08-01T12:51:47;5.68;;;1.58;;
44145;SDS011;29809;52.432;4.780;2022-08-01T12:54:12;4.38;;;1.60;;
44145;SDS011;29809;52.432;4.780;2022-08-01T12:56:38;4.18;;;1.40;;
44145;SDS011;29809;52.432;4.780;2022-08-01T12:59:25;3.08;;;1.00;;
44145;SDS011;29809;52.432;4.780;2022-08-01T13:01:53;3.20;;;1.05;;
44145;SDS011;29809;52.432;4.780;2022-08-01T13:04:19;3.05;;;1.40;;
44145;SDS011;29809;52.432;4.780;2022-08-01T13:06:44;3.05;;;1.40;;
44145;SDS011;29809;52.432;4.780;2022-08-01T13:09:10;3.42;;;1.58;;
44145;SDS011;29809;52.432;4.780;2022-08-01T13:11:37;3.33;;;1.40;;
44145;SDS011;29809;52.432;4.780;2022-08-01T13:14:02;6.57;;;1.95;;
44145;SDS011;29809;52.432;4.780;2022-08-01T13:16:28;3.55;;;1.73;;
44145;SDS011;29809;52.432;4.780;2022-08-01T13:18:55;4.20;;;1.35;;
44145;SDS011;29809;52.432;4.780;2022-08-01T13:21:22;4.50;;;1.45;;
44145;SDS011;29809;52.432;4.780;2022-08-01T13:24:07;6.03;;;1.55;;
44145;SDS011;29809;52.432;4.780;2022-08-01T13:26:44;3.65;;;1.63;;
44145;SDS011;29809;52.432;4.780;2022-08-01T13:29:11;5.25;;;1.35;;
44145;SDS011;29809;52.432;4.780;2022-08-01T13:31:37;4.00;;;1.80;;
44145;SDS011;29809;52.432;4.780;2022-08-01T13:34:02;4.00;;;1.60;;
44145;SDS011;29809;52.432;4.780;2022-08-01T13:36:28;3.72;;;1.30;;
44145;SDS011;29809;52.432;4.780;2022-08-01T13:38:55;3.40;;;1.27;;
44145;SDS011;29809;52.432;4.780;2022-08-01T13:41:40;5.25;;;1.50;;
44145;SDS011;29809;52.432;4.780;2022-08-01T13:44:05;4.40;;;1.63;;
44145;SDS011;29809;52.432;4.780;2022-08-01T13:46:30;6.38;;;1.58;;
44145;SDS011;29809;52.432;4.780;2022-08-01T13:48:56;6.15;;;1.73;;
44145;SDS011;29809;52.432;4.780;2022-08-01T13:51:21;5.93;;;1.42;;
44145;SDS011;29809;52.432;4.780;2022-08-01T13:53:46;7.88;;;2.20;;
44145;SDS011;29809;52.432;4.780;2022-08-01T13:56:11;5.43;;;1.90;;
44145;SDS011;29809;52.432;4.780;2022-08-01T13:58:37;3.92;;;1.67;;
44145;SDS011;29809;52.432;4.780;2022-08-01T14:01:02;3.80;;;1.50;;
44145;SDS011;29809;52.432;4.780;2022-08-01T14:03:27;4.15;;;1.52;;
44145;SDS011;29809;52.432;4.780;2022-08-01T14:05:53;5.22;;;2.10;;
44145;SDS011;29809;52.432;4.780;2022-08-01T14:08:18;3.28;;;1.15;;
44145;SDS011;29809;52.432;4.780;2022-08-01T14:10:43;5.32;;;1.20;;
44145;SDS011;29809;52.432;4.780;2022-08-01T14:13:08;4.57;;;1.10;;
44145;SDS011;29809;52.432;4.780;2022-08-01T14:15:34;3.17;;;1.55;;
44145;SDS011;29809;52.432;4.780;2022-08-01T14:17:59;2.67;;;1.00;;
44145;SDS011;29809;52.432;4.780;2022-08-01T14:20:25;3.55;;;1.00;;
44145;SDS011;29809;52.432;4.780;2022-08-01T14:22:50;4.20;;;1.45;;
44145;SDS011;29809;52.432;4.780;2022-08-01T14:25:15;5.18;;;1.35;;
44145;SDS011;29809;52.432;4.780;2022-08-01T14:27:43;2.55;;;1.20;;
44145;SDS011;29809;52.432;4.780;2022-08-01T14:30:08;4.40;;;1.55;;
44145;SDS011;29809;52.432;4.780;2022-08-01T14:32:34;2.92;;;1.50;;
44145;SDS011;29809;52.432;4.780;2022-08-01T14:35:00;2.33;;;1.20;;
44145;SDS011;29809;52.432;4.780;2022-08-01T14:37:25;3.88;;;1.17;;
44145;SDS011;29809;52.432;4.780;2022-08-01T14:39:53;5.40;;;1.58;;
44145;SDS011;29809;52.432;4.780;2022-08-01T14:42:18;7.10;;;1.60;;
44145;SDS011;29809;52.432;4.780;2022-08-01T14:44:43;5.72;;;2.20;;
44145;SDS011;29809;52.432;4.780;2022-08-01T14:47:08;5.18;;;2.30;;
44145;SDS011;29809;52.432;4.780;2022-08-01T14:49:34;8.38;;;3.15;;
44145;SDS011;29809;52.432;4.780;2022-08-01T14:52:00;11.23;;;3.60;;
44145;SDS011;29809;52.432;4.780;2022-08-01T14:54:25;10.13;;;3.85;;
44145;SDS011;29809;52.432;4.780;2022-08-01T14:56:50;11.48;;;3.58;;
44145;SDS011;29809;52.432;4.780;2022-08-01T14:59:17;6.30;;;2.95;;
44145;SDS011;29809;52.432;4.780;2022-08-01T15:01:43;8.10;;;2.72;;
44145;SDS011;29809;52.432;4.780;2022-08-01T15:04:08;6.10;;;2.58;;
44145;SDS011;29809;52.432;4.780;2022-08-01T15:06:33;4.57;;;2.83;;
44145;SDS011;29809;52.432;4.780;2022-08-01T15:08:58;7.13;;;2.72;;
44145;SDS011;29809;52.432;4.780;2022-08-01T15:11:23;9.32;;;2.75;;
44145;SDS011;29809;52.432;4.780;2022-08-01T15:13:49;6.75;;;2.08;;
44145;SDS011;29809;52.432;4.780;2022-08-01T15:16:34;4.78;;;1.50;;
44145;SDS011;29809;52.432;4.780;2022-08-01T15:18:59;6.68;;;1.40;;